Time;durP1;ratioP1;P1;durP2;ratioP2;P2;SDS_P1;SDS_P2;PMS_P1;PMS_P2;Temp;Humidity;BMP_temperature;BMP_pressure;BME280_temperature;BME280_humidity;BME280_pressure;Samples;Min_cycle;Max_cycle;Signal;HPM_P1;HPM_P2
2022/05/30 00:00:45;;;;;;;0.00;0.00;;;10.30;99.90;;;;;;4933841;29;20027;-66
2022/05/30 00:03:11;;;;;;;0.90;0.90;;;10.30;99.90;;;;;;4934565;29;20038;-64
2022/05/30 00:05:45;;;;;;;0.10;0.10;;;10.20;99.90;;;;;;4934700;29;20111;-66
2022/05/30 00:08:11;;;;;;;0.00;0.00;;;10.20;99.90;;;;;;4934726;29;20074;-65
2022/05/30 00:10:36;;;;;;;0.00;0.00;;;10.30;99.90;;;;;;4933516;29;20099;-65
2022/05/30 00:13:02;;;;;;;0.17;0.17;;;10.40;99.90;;;;;;4935900;29;20032;-65
2022/05/30 00:15:29;;;;;;;0.00;0.00;;;10.20;99.90;;;;;;4935472;29;20035;-64
2022/05/30 00:17:56;;;;;;;0.30;0.30;;;10.30;99.90;;;;;;4936031;29;20038;-65
2022/05/30 00:20:23;;;;;;;0.00;0.00;;;10.20;99.90;;;;;;4933369;29;20127;-66
2022/05/30 00:22:49;;;;;;;0.00;0.00;;;10.10;99.90;;;;;;4935365;29;20039;-66
2022/05/30 00:25:15;;;;;;;0.20;0.20;;;10.20;99.90;;;;;;4934333;29;20031;-65
2022/05/30 00:27:41;;;;;;;0.95;0.75;;;10.10;99.90;;;;;;4935575;29;20031;-65
2022/05/30 00:30:07;;;;;;;0.00;0.00;;;10.00;99.90;;;;;;4934622;29;20048;-65
2022/05/30 00:32:34;;;;;;;0.00;0.00;;;10.10;99.90;;;;;;4935470;29;20043;-65
2022/05/30 00:35:00;;;;;;;0.10;0.10;;;10.10;99.90;;;;;;4933867;29;20038;-65
2022/05/30 00:37:27;;;;;;;0.00;0.00;;;10.10;99.90;;;;;;4934032;29;20481;-65
2022/05/30 00:39:53;;;;;;;0.08;0.08;;;10.00;99.90;;;;;;4933420;29;20555;-65
2022/05/30 00:42:24;;;;;;;0.00;0.00;;;10.00;99.90;;;;;;4935253;29;20044;-65
2022/05/30 00:44:50;;;;;;;0.00;0.00;;;9.90;99.90;;;;;;4917923;29;20049;-65
2022/05/30 00:47:20;;;;;;;0.00;0.00;;;10.00;99.90;;;;;;4934887;29;20039;-65
2022/05/30 00:49:49;;;;;;;0.00;0.00;;;10.00;99.90;;;;;;4933519;29;20027;-65
2022/05/30 00:52:28;;;;;;;0.10;0.10;;;10.00;99.90;;;;;;4933976;29;20035;-65
2022/05/30 00:55:06;;;;;;;0.00;0.00;;;10.10;99.90;;;;;;4933731;29;20043;-65
2022/05/30 00:57:33;;;;;;;0.10;0.10;;;10.20;99.90;;;;;;4934034;29;20452;-65
2022/05/30 01:00:13;;;;;;;0.17;0.17;;;10.30;99.90;;;;;;4932987;29;20406;-65
2022/05/30 01:02:41;;;;;;;0.00;0.00;;;10.30;99.90;;;;;;4934279;29;20048;-65
2022/05/30 01:08:02;;;;;;;0.00;0.00;;;10.20;99.90;;;;;;4933564;29;20555;-65
2022/05/30 01:10:28;;;;;;;0.10;0.10;;;10.20;99.90;;;;;;4934097;29;20032;-65
2022/05/30 01:12:57;;;;;;;0.00;0.00;;;10.10;99.90;;;;;;4934841;29;20035;-65
2022/05/30 01:15:27;;;;;;;0.20;0.20;;;9.90;99.90;;;;;;4930004;29;20096;-65
2022/05/30 01:18:23;;;;;;;0.00;0.00;;;9.80;99.90;;;;;;4915566;29;20511;-65
2022/05/30 01:21:21;;;;;;;0.00;0.00;;;9.70;99.90;;;;;;4914073;29;20340;-65
2022/05/30 01:24:15;;;;;;;0.05;0.05;;;9.80;99.90;;;;;;4921166;29;20032;-65
2022/05/30 01:27:04;;;;;;;0.05;0.05;;;9.90;99.90;;;;;;4933252;29;20440;-65
2022/05/30 01:29:41;;;;;;;0.00;0.00;;;9.90;99.90;;;;;;4932497;29;20606;-65
2022/05/30 01:32:07;;;;;;;0.08;0.08;;;10.00;99.90;;;;;;4932982;29;20140;-65
2022/05/30 01:34:32;;;;;;;0.00;0.00;;;10.10;99.90;;;;;;4934199;29;20069;-65
2022/05/30 01:36:59;;;;;;;0.00;0.00;;;10.00;99.90;;;;;;4934072;29;20039;-65
2022/05/30 01:39:24;;;;;;;0.00;0.00;;;10.00;99.90;;;;;;4933866;29;20032;-65
2022/05/30 01:41:50;;;;;;;0.00;0.00;;;9.90;99.90;;;;;;4919867;29;20052;-65
2022/05/30 01:44:16;;;;;;;0.00;0.00;;;9.90;99.90;;;;;;4914943;29;20396;-65
2022/05/30 01:46:43;;;;;;;0.20;0.20;;;9.90;99.90;;;;;;4913672;29;20036;-65
2022/05/30 01:49:08;;;;;;;0.00;0.00;;;9.80;99.90;;;;;;4912829;29;20032;-65
2022/05/30 01:51:34;;;;;;;0.40;0.40;;;9.70;99.90;;;;;;4913780;29;20043;-62
2022/05/30 01:54:00;;;;;;;0.00;0.00;;;9.50;99.90;;;;;;4914875;29;20032;-65
2022/05/30 01:56:26;;;;;;;0.00;0.00;;;9.50;99.90;;;;;;4897904;29;20032;-65
2022/05/30 01:58:52;;;;;;;0.10;0.10;;;9.50;99.90;;;;;;4914478;29;20048;-65
2022/05/30 02:01:24;;;;;;;0.00;0.00;;;9.50;99.90;;;;;;4913704;29;20035;-65
2022/05/30 02:03:52;;;;;;;0.10;0.10;;;9.40;99.90;;;;;;4897713;29;20115;-65
2022/05/30 02:06:23;;;;;;;0.22;0.22;;;9.30;99.90;;;;;;4914533;29;20024;-65
2022/05/30 02:08:49;;;;;;;0.45;0.30;;;9.30;99.90;;;;;;4912591;29;20028;-65
2022/05/30 02:11:17;;;;;;;0.03;0.03;;;9.10;99.90;;;;;;4913643;29;20039;-65
2022/05/30 02:13:43;;;;;;;0.00;0.00;;;8.90;99.90;;;;;;4914291;29;20059;-65
2022/05/30 02:18:57;;;;;;;0.17;0.08;;;8.90;99.90;;;;;;4933043;29;20031;-65
2022/05/30 02:21:23;;;;;;;0.00;0.00;;;8.90;99.90;;;;;;4933435;29;20059;-65
2022/05/30 02:23:49;;;;;;;0.10;0.10;;;8.70;99.90;;;;;;4933120;29;20130;-65
2022/05/30 02:26:15;;;;;;;0.52;0.52;;;8.70;99.90;;;;;;4933527;29;20027;-65
2022/05/30 02:28:41;;;;;;;0.00;0.00;;;8.70;99.90;;;;;;4931009;29;20028;-65
2022/05/30 02:31:06;;;;;;;0.00;0.00;;;8.70;99.90;;;;;;4932145;29;20039;-65
2022/05/30 02:39:01;;;;;;;0.20;0.20;;;8.80;99.90;;;;;;4931553;29;20042;-65
2022/05/30 02:41:27;;;;;;;0.00;0.00;;;8.70;99.90;;;;;;4932978;29;20503;-65
2022/05/30 02:43:53;;;;;;;0.00;0.00;;;8.70;99.90;;;;;;4932091;29;20036;-65
2022/05/30 02:46:19;;;;;;;0.00;0.00;;;8.60;99.90;;;;;;4916527;29;20094;-65
2022/05/30 02:48:45;;;;;;;0.45;0.45;;;8.70;99.90;;;;;;4932540;29;20036;-65
2022/05/30 02:51:11;;;;;;;0.10;0.10;;;8.70;99.90;;;;;;4932824;29;20024;-65
2022/05/30 02:53:37;;;;;;;0.00;0.00;;;8.70;99.90;;;;;;4932755;29;20054;-65
2022/05/30 02:56:04;;;;;;;0.00;0.00;;;8.70;99.90;;;;;;4933034;29;20165;-65
2022/05/30 02:58:29;;;;;;;0.05;0.05;;;8.60;99.90;;;;;;4931513;29;20028;-65
2022/05/30 03:00:55;;;;;;;0.05;0.05;;;8.50;99.90;;;;;;4932737;29;20059;-65
2022/05/30 03:03:21;;;;;;;0.10;0.10;;;8.50;99.90;;;;;;4936814;29;20087;-65
2022/05/30 03:05:47;;;;;;;3.50;1.45;;;8.50;99.90;;;;;;4936940;29;20027;-65
2022/05/30 03:08:13;;;;;;;0.00;0.00;;;8.50;99.90;;;;;;4935844;29;20051;-64
2022/05/30 03:10:38;;;;;;;0.00;0.00;;;8.50;99.90;;;;;;4934832;29;20782;-65
2022/05/30 03:13:06;;;;;;;0.00;0.00;;;8.60;99.90;;;;;;4935437;29;20067;-65
2022/05/30 03:15:35;;;;;;;0.00;0.00;;;8.60;99.90;;;;;;4932333;29;20044;-65
2022/05/30 03:18:01;;;;;;;0.00;0.00;;;8.70;99.90;;;;;;4916462;29;20393;-65
2022/05/30 03:20:27;;;;;;;0.00;0.00;;;8.70;99.90;;;;;;4916864;29;20115;-65
2022/05/30 03:22:53;;;;;;;0.00;0.00;;;8.70;99.90;;;;;;4916031;29;20036;-65
2022/05/30 03:25:19;;;;;;;0.20;0.20;;;8.60;99.90;;;;;;4916163;29;20043;-65
2022/05/30 03:27:46;;;;;;;0.10;0.10;;;8.70;99.90;;;;;;4917862;29;20480;-65
2022/05/30 03:30:13;;;;;;;0.20;0.20;;;8.80;99.90;;;;;;4915623;29;20111;-65
2022/05/30 03:32:41;;;;;;;0.10;0.10;;;8.90;99.90;;;;;;4916024;29;20029;-65
2022/05/30 03:35:08;;;;;;;0.10;0.10;;;8.90;99.90;;;;;;4916019;29;20032;-64
2022/05/30 03:37:36;;;;;;;0.70;0.70;;;8.90;99.90;;;;;;4915858;29;20083;-65
2022/05/30 03:40:08;;;;;;;0.95;0.93;;;8.80;99.90;;;;;;4916594;29;20032;-65
2022/05/30 03:42:34;;;;;;;0.45;0.45;;;8.70;99.90;;;;;;4917045;29;20032;-65
2022/05/30 03:45:01;;;;;;;0.20;0.20;;;8.70;99.90;;;;;;4917136;29;20039;-65
2022/05/30 03:47:26;;;;;;;0.52;0.52;;;8.60;99.90;;;;;;4916023;29;20397;-65
2022/05/30 03:50:02;;;;;;;0.05;0.05;;;8.60;99.90;;;;;;4916186;29;20032;-65
2022/05/30 03:52:28;;;;;;;0.20;0.20;;;8.60;99.90;;;;;;4915823;29;20040;-65
2022/05/30 03:54:54;;;;;;;0.32;0.32;;;8.60;99.90;;;;;;4916940;29;20028;-65
2022/05/30 03:57:20;;;;;;;0.00;0.00;;;8.50;99.90;;;;;;4917022;29;20385;-64
2022/05/30 03:59:47;;;;;;;0.10;0.10;;;8.40;99.90;;;;;;4899229;29;20032;-63
2022/05/30 04:02:13;;;;;;;0.00;0.00;;;8.40;99.90;;;;;;4916928;29;20024;-63
2022/05/30 04:04:38;;;;;;;0.22;0.22;;;8.30;99.90;;;;;;4917099;29;20075;-63
2022/05/30 04:07:05;;;;;;;0.05;0.05;;;8.20;99.90;;;;;;4931465;29;20539;-63
2022/05/30 04:09:31;;;;;;;0.08;0.08;;;8.20;99.90;;;;;;4934759;29;20020;-63
2022/05/30 04:11:56;;;;;;;0.25;0.20;;;8.20;99.90;;;;;;4934872;29;20076;-62
2022/05/30 04:14:22;;;;;;;0.65;0.25;;;8.10;99.90;;;;;;4931227;29;20551;-63
2022/05/30 04:16:48;;;;;;;0.10;0.10;;;8.10;99.90;;;;;;4935554;29;20035;-63
2022/05/30 04:19:14;;;;;;;0.00;0.00;;;7.90;99.90;;;;;;4933305;29;20047;-64
2022/05/30 04:21:40;;;;;;;0.00;0.00;;;8.00;99.90;;;;;;4933884;29;20111;-63
2022/05/30 04:24:06;;;;;;;8.15;1.50;;;8.00;99.90;;;;;;4933677;29;20036;-64
2022/05/30 04:26:32;;;;;;;0.20;0.20;;;7.90;99.90;;;;;;4918461;29;20492;-63
2022/05/30 04:28:57;;;;;;;0.10;0.10;;;7.80;99.90;;;;;;4933130;29;20056;-63
2022/05/30 04:31:23;;;;;;;1.00;0.80;;;8.00;99.90;;;;;;4935160;29;20035;-63
2022/05/30 04:33:49;;;;;;;0.40;0.40;;;8.10;99.90;;;;;;4928931;29;20046;-64
2022/05/30 04:36:16;;;;;;;0.00;0.00;;;8.20;99.90;;;;;;4932653;29;20055;-64
2022/05/30 04:38:42;;;;;;;0.00;0.00;;;8.30;99.90;;;;;;4917234;29;20500;-64
2022/05/30 04:41:08;;;;;;;0.00;0.00;;;8.40;99.90;;;;;;4935026;29;20028;-63
2022/05/30 04:43:34;;;;;;;0.00;0.00;;;8.40;99.90;;;;;;4917406;29;20035;-63
2022/05/30 04:46:26;;;;;;;0.00;0.00;;;8.40;99.90;;;;;;4934722;29;20031;-64
2022/05/30 04:48:52;;;;;;;0.30;0.30;;;8.40;99.90;;;;;;4900768;28;20085;-62
2022/05/30 04:51:17;;;;;;;0.20;0.20;;;8.40;99.90;;;;;;4934349;29;20059;-64
2022/05/30 04:53:43;;;;;;;0.00;0.00;;;8.40;99.90;;;;;;4933350;29;20078;-62
2022/05/30 04:56:09;;;;;;;0.00;0.00;;;8.40;99.90;;;;;;4933475;29;20035;-65
2022/05/30 04:58:36;;;;;;;0.00;0.00;;;8.60;99.90;;;;;;4932648;29;20028;-63
2022/05/30 05:01:06;;;;;;;0.00;0.00;;;8.80;99.90;;;;;;4928558;29;20059;-64
2022/05/30 05:03:33;;;;;;;0.00;0.00;;;9.00;99.90;;;;;;4932096;29;20102;-64
2022/05/30 05:06:07;;;;;;;0.20;0.20;;;8.90;99.90;;;;;;4929626;29;20042;-63
2022/05/30 05:08:41;;;;;;;0.00;0.00;;;8.90;99.90;;;;;;4931161;29;20102;-64
2022/05/30 05:11:24;;;;;;;0.00;0.00;;;9.10;99.90;;;;;;4932520;29;20392;-63
2022/05/30 05:13:51;;;;;;;0.10;0.10;;;9.20;99.90;;;;;;4933724;29;20070;-63
2022/05/30 05:16:20;;;;;;;0.10;0.10;;;9.10;99.90;;;;;;4917692;29;20036;-63
2022/05/30 05:18:47;;;;;;;0.13;0.13;;;9.20;99.90;;;;;;4914398;29;20067;-64
2022/05/30 05:21:26;;;;;;;0.00;0.00;;;9.30;99.90;;;;;;4914920;29;20046;-63
2022/05/30 05:23:52;;;;;;;0.28;0.28;;;9.30;99.90;;;;;;4912626;29;20036;-64
2022/05/30 05:26:19;;;;;;;0.00;0.00;;;9.50;99.90;;;;;;4913964;29;20110;-64
2022/05/30 05:28:47;;;;;;;0.00;0.00;;;9.60;99.90;;;;;;4924895;29;20023;-64
2022/05/30 05:31:32;;;;;;;0.00;0.00;;;9.60;99.90;;;;;;4928757;29;20047;-64
2022/05/30 05:33:59;;;;;;;0.00;0.00;;;9.60;99.90;;;;;;4927794;29;20063;-63
2022/05/30 05:36:31;;;;;;;0.00;0.00;;;9.60;99.90;;;;;;4914573;29;20047;-63
2022/05/30 05:38:58;;;;;;;0.40;0.40;;;9.50;99.90;;;;;;4929063;29;20086;-62
2022/05/30 05:41:24;;;;;;;0.00;0.00;;;9.60;99.90;;;;;;4932826;29;20591;-62
2022/05/30 05:43:54;;;;;;;0.10;0.10;;;9.60;99.90;;;;;;4923287;29;20046;-62
2022/05/30 05:46:23;;;;;;;0.10;0.10;;;9.70;99.90;;;;;;4932702;29;20035;-62
2022/05/30 05:48:52;;;;;;;0.00;0.00;;;9.90;99.90;;;;;;4927965;29;20032;-62
2022/05/30 05:51:19;;;;;;;0.00;0.00;;;9.90;99.90;;;;;;4932992;29;20024;-62
2022/05/30 05:53:45;;;;;;;0.30;0.30;;;9.90;99.90;;;;;;4930292;29;20453;-61
2022/05/30 05:56:13;;;;;;;0.00;0.00;;;10.00;99.90;;;;;;4931406;29;20086;-62
2022/05/30 05:58:39;;;;;;;0.32;0.32;;;10.10;99.90;;;;;;4927471;29;20040;-62
2022/05/30 06:01:12;;;;;;;0.08;0.08;;;10.40;99.90;;;;;;4930140;29;20063;-62
2022/05/30 06:03:38;;;;;;;0.17;0.17;;;10.30;99.90;;;;;;4927721;29;20040;-62
2022/05/30 06:06:05;;;;;;;0.00;0.00;;;10.30;99.90;;;;;;4932707;29;20071;-62
2022/05/30 06:08:31;;;;;;;0.10;0.10;;;10.40;99.90;;;;;;4932056;29;20056;-62
2022/05/30 06:11:11;;;;;;;0.15;0.15;;;10.60;99.90;;;;;;4930682;29;20028;-62
2022/05/30 06:13:44;;;;;;;0.00;0.00;;;10.60;99.90;;;;;;4929195;29;20031;-64
2022/05/30 06:16:18;;;;;;;0.75;0.55;;;10.60;99.90;;;;;;4927777;29;20032;-63
2022/05/30 06:18:45;;;;;;;1.00;1.00;;;10.80;99.90;;;;;;4929457;29;20396;-63
2022/05/30 06:21:11;;;;;;;2.28;1.35;;;10.80;99.90;;;;;;4927933;29;20497;-62
2022/05/30 06:23:37;;;;;;;0.52;0.52;;;10.90;99.90;;;;;;4912965;29;20036;-61
2022/05/30 06:26:08;;;;;;;0.00;0.00;;;11.10;99.90;;;;;;4932629;29;20038;-61
2022/05/30 06:28:36;;;;;;;0.00;0.00;;;11.20;99.90;;;;;;4929668;29;20028;-61
2022/05/30 06:31:12;;;;;;;0.10;0.10;;;11.20;99.90;;;;;;4915220;29;20035;-62
2022/05/30 06:33:38;;;;;;;0.00;0.00;;;11.30;99.90;;;;;;4930767;29;20664;-62
2022/05/30 06:36:07;;;;;;;0.30;0.30;;;11.40;99.90;;;;;;4931480;29;20447;-61
2022/05/30 06:38:35;;;;;;;5.05;2.20;;;11.60;99.90;;;;;;4930458;29;20040;-62
2022/05/30 06:41:20;;;;;;;1.08;1.00;;;11.80;99.90;;;;;;4931528;29;20086;-61
2022/05/30 06:43:47;;;;;;;0.00;0.00;;;11.80;99.90;;;;;;4930787;29;20032;-62
2022/05/30 06:46:14;;;;;;;0.10;0.10;;;11.90;99.90;;;;;;4932292;29;20028;-64
2022/05/30 06:48:40;;;;;;;0.32;0.20;;;12.00;99.90;;;;;;4930151;29;20028;-61
2022/05/30 06:51:14;;;;;;;0.00;0.00;;;12.00;99.90;;;;;;4930404;29;20031;-62
2022/05/30 06:53:46;;;;;;;0.00;0.00;;;12.10;99.90;;;;;;4931905;29;20035;-62
2022/05/30 06:56:23;;;;;;;0.00;0.00;;;12.20;99.90;;;;;;4932436;29;20081;-62
2022/05/30 06:58:50;;;;;;;0.35;0.32;;;12.10;99.90;;;;;;4922525;29;20069;-61
2022/05/30 07:01:22;;;;;;;0.00;0.00;;;12.20;99.90;;;;;;4916598;29;20028;-63
2022/05/30 07:03:49;;;;;;;0.10;0.10;;;12.40;99.90;;;;;;4904850;29;20035;-63
2022/05/30 07:06:20;;;;;;;0.00;0.00;;;12.50;99.90;;;;;;4932688;29;20032;-62
2022/05/30 07:08:46;;;;;;;0.00;0.00;;;12.60;99.90;;;;;;4930307;29;20024;-63
2022/05/30 07:11:19;;;;;;;0.00;0.00;;;12.60;99.90;;;;;;4932016;29;20039;-62
2022/05/30 07:13:45;;;;;;;0.00;0.00;;;12.50;99.90;;;;;;4931160;29;20118;-62
2022/05/30 07:16:12;;;;;;;0.10;0.10;;;12.60;99.90;;;;;;4931120;29;20039;-63
2022/05/30 07:18:39;;;;;;;0.00;0.00;;;12.70;99.90;;;;;;4929046;29;20114;-63
2022/05/30 07:21:08;;;;;;;0.35;0.35;;;12.90;99.90;;;;;;4931403;29;20035;-63
2022/05/30 07:23:37;;;;;;;0.00;0.00;;;13.00;99.90;;;;;;4930201;29;20040;-62
2022/05/30 07:26:10;;;;;;;0.00;0.00;;;13.00;99.90;;;;;;4931520;29;20070;-62
2022/05/30 07:28:36;;;;;;;0.05;0.05;;;13.00;99.90;;;;;;4926498;29;20056;-62
2022/05/30 07:31:12;;;;;;;0.00;0.00;;;13.10;99.90;;;;;;4929094;29;20098;-63
2022/05/30 07:33:44;;;;;;;0.05;0.05;;;13.10;99.90;;;;;;4931585;29;20119;-63
2022/05/30 07:36:27;;;;;;;0.00;0.00;;;13.20;99.90;;;;;;4930830;29;20031;-64
2022/05/30 07:38:53;;;;;;;0.00;0.00;;;13.40;99.90;;;;;;4930628;29;20044;-62
2022/05/30 07:41:21;;;;;;;0.28;0.28;;;13.30;99.90;;;;;;4931786;29;20034;-63
2022/05/30 07:43:47;;;;;;;1.08;0.98;;;13.10;99.90;;;;;;4930867;29;20579;-63
2022/05/30 07:46:15;;;;;;;0.00;0.00;;;13.20;99.90;;;;;;4931549;29;20075;-63
2022/05/30 07:48:42;;;;;;;0.00;0.00;;;13.30;99.90;;;;;;4934739;29;20430;-63
2022/05/30 07:51:10;;;;;;;0.00;0.00;;;13.30;99.90;;;;;;4935452;29;20107;-63
2022/05/30 07:53:38;;;;;;;0.10;0.10;;;13.40;99.90;;;;;;4935617;29;20031;-63
2022/05/30 07:56:15;;;;;;;0.00;0.00;;;13.50;99.90;;;;;;4934342;29;20122;-63
2022/05/30 07:58:41;;;;;;;0.00;0.00;;;13.70;99.90;;;;;;4933814;29;20074;-62
2022/05/30 08:01:13;;;;;;;0.28;0.28;;;13.70;99.90;;;;;;4935596;29;20457;-63
2022/05/30 08:03:40;;;;;;;0.13;0.13;;;13.80;99.90;;;;;;4934483;29;20035;-63
2022/05/30 08:06:14;;;;;;;0.00;0.00;;;13.70;99.90;;;;;;4935360;29;20103;-63
2022/05/30 08:08:41;;;;;;;0.00;0.00;;;13.90;99.90;;;;;;4933791;29;20421;-63
2022/05/30 08:11:08;;;;;;;0.43;0.43;;;14.00;99.90;;;;;;4934628;29;20031;-64
2022/05/30 08:13:34;;;;;;;0.35;0.35;;;14.10;99.90;;;;;;4935472;29;20031;-62
2022/05/30 08:16:01;;;;;;;0.20;0.20;;;14.00;99.90;;;;;;4935474;29;20396;-62
2022/05/30 08:18:28;;;;;;;0.20;0.20;;;14.20;99.90;;;;;;4917912;29;20043;-65
2022/05/30 08:20:53;;;;;;;0.10;0.10;;;14.50;99.90;;;;;;4933292;29;20571;-63
2022/05/30 08:23:20;;;;;;;0.00;0.00;;;14.50;99.90;;;;;;4933601;29;20123;-64
2022/05/30 08:25:47;;;;;;;0.03;0.03;;;14.50;99.90;;;;;;4934130;29;20079;-64
2022/05/30 08:28:14;;;;;;;4.93;1.48;;;14.70;99.90;;;;;;4935356;29;20023;-64
2022/05/30 08:30:40;;;;;;;0.25;0.25;;;14.80;99.80;;;;;;4933161;29;20035;-62
2022/05/30 08:33:16;;;;;;;1.05;1.00;;;14.90;99.50;;;;;;4934975;29;20027;-62
2022/05/30 08:35:45;;;;;;;0.00;0.00;;;15.30;98.60;;;;;;4933529;29;20095;-62
2022/05/30 08:38:11;;;;;;;0.00;0.00;;;15.60;98.00;;;;;;4933858;29;20487;-63
2022/05/30 08:43:35;;;;;;;0.00;0.00;;;15.80;96.70;;;;;;4933822;29;20031;-63
2022/05/30 08:46:19;;;;;;;0.00;0.00;;;15.50;97.00;;;;;;4933709;29;20032;-63
2022/05/30 08:49:11;;;;;;;0.00;0.00;;;15.40;96.00;;;;;;4933096;29;20031;-63
2022/05/30 08:52:27;;;;;;;0.00;0.00;;;15.70;95.90;;;;;;4925202;29;20043;-64
2022/05/30 08:55:15;;;;;;;0.43;0.30;;;15.70;95.60;;;;;;4933868;29;20674;-63
2022/05/30 08:57:50;;;;;;;0.00;0.00;;;15.60;95.10;;;;;;4934721;29;20032;-63
2022/05/30 09:00:36;;;;;;;0.10;0.10;;;15.50;95.30;;;;;;4933322;29;20504;-63
2022/05/30 09:04:06;;;;;;;0.00;0.00;;;15.70;95.40;;;;;;4934590;29;20562;-63
2022/05/30 09:06:43;;;;;;;0.38;0.38;;;15.90;94.50;;;;;;4934254;29;20123;-63
2022/05/30 09:10:09;;;;;;;0.00;0.00;;;15.90;94.00;;;;;;4932506;29;20492;-63
2022/05/30 09:12:48;;;;;;;0.00;0.00;;;16.30;93.10;;;;;;4929380;29;20048;-63
2022/05/30 09:15:34;;;;;;;0.00;0.00;;;16.40;92.90;;;;;;4948277;29;20036;-63
2022/05/30 09:18:00;;;;;;;0.17;0.17;;;16.40;94.00;;;;;;4939046;29;20039;-63
2022/05/30 09:20:28;;;;;;;0.00;0.00;;;16.30;94.40;;;;;;4914429;29;20040;-63
2022/05/30 09:22:54;;;;;;;0.00;0.00;;;16.30;93.30;;;;;;4914748;29;20191;-63
2022/05/30 09:28:17;;;;;;;0.20;0.20;;;16.80;92.40;;;;;;4923476;29;20500;-63
2022/05/30 09:31:15;;;;;;;0.00;0.00;;;16.60;92.20;;;;;;4919356;29;20044;-63
2022/05/30 09:33:46;;;;;;;0.08;0.05;;;16.90;92.20;;;;;;4904043;29;20464;-63
2022/05/30 09:36:24;;;;;;;0.30;0.15;;;16.90;92.90;;;;;;4921911;29;20040;-65
2022/05/30 09:39:05;;;;;;;0.80;0.80;;;17.20;92.30;;;;;;4915700;29;20043;-63
2022/05/30 09:41:39;;;;;;;0.00;0.00;;;17.70;92.00;;;;;;4933569;29;20433;-63
2022/05/30 09:44:20;;;;;;;0.00;0.00;;;17.70;91.10;;;;;;4928740;29;20087;-63
2022/05/30 09:47:08;;;;;;;0.00;0.00;;;17.10;91.70;;;;;;4914327;29;20066;-63
2022/05/30 09:49:54;;;;;;;0.00;0.00;;;17.40;91.70;;;;;;4927209;29;20031;-64
2022/05/30 09:52:35;;;;;;;0.00;0.00;;;17.70;92.10;;;;;;4928911;29;20425;-64
2022/05/30 09:55:26;;;;;;;0.00;0.00;;;17.70;91.60;;;;;;4914916;29;20068;-63
2022/05/30 09:57:54;;;;;;;;;;;17.30;91.40;;;;;;4915250;29;20124;-64
2022/05/30 10:00:55;;;;;;;0.00;0.00;;;17.30;92.30;;;;;;4913652;29;20500;-64
2022/05/30 10:03:41;;;;;;;0.00;0.00;;;17.60;91.50;;;;;;4895410;29;20048;-63
2022/05/30 10:06:18;;;;;;;0.00;0.00;;;17.60;91.80;;;;;;4933674;29;20500;-63
2022/05/30 10:08:46;;;;;;;1.40;0.55;;;17.60;91.60;;;;;;4932208;29;20036;-63
2022/05/30 10:11:34;;;;;;;0.00;0.00;;;17.80;91.00;;;;;;4931703;29;20059;-64
2022/05/30 10:14:17;;;;;;;0.60;0.60;;;18.00;90.80;;;;;;4933444;29;20044;-63
2022/05/30 10:16:46;;;;;;;0.00;0.00;;;18.30;91.70;;;;;;4933126;29;20791;-64
2022/05/30 10:19:30;;;;;;;0.00;0.00;;;18.70;90.70;;;;;;4931090;29;20508;-64
2022/05/30 10:28:50;;;;;;;2.92;0.65;;;18.70;89.80;;;;;;4913519;29;20346;-64
2022/05/30 10:32:14;;;;;;;0.15;0.10;;;18.70;89.60;;;;;;4897357;29;20083;-64
2022/05/30 10:35:12;;;;;;;0.30;0.30;;;19.00;88.50;;;;;;4884060;29;20047;-63
2022/05/30 10:38:04;;;;;;;0.00;0.00;;;19.20;86.80;;;;;;4901604;29;20060;-65
2022/05/30 10:40:54;;;;;;;0.00;0.00;;;18.30;88.00;;;;;;4911624;29;20039;-65
2022/05/30 10:43:30;;;;;;;0.00;0.00;;;18.80;89.60;;;;;;4913708;29;20040;-66
2022/05/30 10:46:04;;;;;;;0.00;0.00;;;19.00;86.90;;;;;;4912535;29;20436;-64
2022/05/30 10:48:52;;;;;;;0.00;0.00;;;18.00;88.30;;;;;;4912456;29;20674;-70
2022/05/30 10:51:28;;;;;;;0.00;0.00;;;18.00;89.00;;;;;;4914004;29;20144;-67
2022/05/30 10:54:27;;;;;;;0.13;0.13;;;18.30;89.20;;;;;;4914030;29;20047;-68
2022/05/30 10:57:05;;;;;;;0.00;0.00;;;18.40;86.20;;;;;;4913163;29;20923;-70
2022/05/30 10:59:47;;;;;;;0.00;0.00;;;18.00;88.70;;;;;;4912213;29;20126;-68
2022/05/30 11:02:27;;;;;;;0.10;0.10;;;18.60;88.80;;;;;;4913230;29;20036;-68
2022/05/30 11:05:15;;;;;;;0.00;0.00;;;19.10;88.00;;;;;;4913178;29;20040;-68
2022/05/30 11:07:57;;;;;;;0.13;0.13;;;19.00;85.90;;;;;;4931490;29;20539;-68
2022/05/30 11:10:56;;;;;;;0.00;0.00;;;19.00;83.10;;;;;;4937832;29;20046;-68
2022/05/30 11:13:43;;;;;;;0.00;0.00;;;18.90;82.80;;;;;;4932950;29;20063;-68
2022/05/30 11:16:33;;;;;;;0.00;0.00;;;19.00;82.10;;;;;;4940208;29;20039;-67
2022/05/30 11:19:12;;;;;;;0.52;0.22;;;19.40;83.10;;;;;;4914730;29;20126;-67
2022/05/30 11:21:44;;;;;;;0.00;0.00;;;18.50;84.10;;;;;;4932116;29;20028;-68
2022/05/30 11:24:10;;;;;;;0.00;0.00;;;19.20;83.10;;;;;;4936362;29;20381;-68
2022/05/30 11:27:02;;;;;;;0.40;0.35;;;19.50;82.50;;;;;;4935193;29;20465;-67
2022/05/30 11:30:14;;;;;;;0.00;0.00;;;19.20;82.60;;;;;;4935151;29;20667;-67
2022/05/30 11:33:02;;;;;;;0.00;0.00;;;18.80;83.30;;;;;;4935706;29;20049;-67
2022/05/30 11:35:49;;;;;;;0.00;0.00;;;18.20;85.60;;;;;;4934385;29;20523;-68
2022/05/30 11:38:23;;;;;;;0.00;0.00;;;18.40;84.50;;;;;;4934899;29;20028;-67
2022/05/30 11:41:24;;;;;;;0.00;0.00;;;18.70;84.80;;;;;;4935149;29;20031;-67
2022/05/30 11:44:27;;;;;;;5.95;0.43;;;18.80;83.90;;;;;;4935118;29;20032;-67
2022/05/30 11:47:24;;;;;;;0.10;0.10;;;18.70;83.70;;;;;;4936145;29;20044;-67
2022/05/30 11:50:26;;;;;;;0.00;0.00;;;19.10;84.00;;;;;;4935194;29;20082;-67
2022/05/30 11:53:25;;;;;;;;;;;19.90;80.70;;;;;;4935744;29;20400;-67
2022/05/30 11:56:27;;;;;;;0.00;0.00;;;19.70;81.00;;;;;;4936027;29;19910;-68
2022/05/30 11:59:10;;;;;;;0.00;0.00;;;20.00;79.10;;;;;;4934801;29;20040;-67
2022/05/30 12:01:41;;;;;;;0.03;0.03;;;19.50;78.50;;;;;;4935660;29;20032;-67
2022/05/30 12:04:28;;;;;;;0.00;0.00;;;19.20;79.30;;;;;;4933941;29;20502;-68
2022/05/30 12:07:55;;;;;;;0.20;0.20;;;19.50;78.10;;;;;;4935204;29;20058;-68
2022/05/30 12:10:43;;;;;;;0.20;0.20;;;19.20;77.60;;;;;;4932810;29;20043;-68
2022/05/30 12:13:41;;;;;;;0.00;0.00;;;19.20;79.70;;;;;;4934897;29;20075;-68
2022/05/30 12:16:24;;;;;;;0.10;0.10;;;19.50;78.70;;;;;;4935215;29;20123;-67
2022/05/30 12:24:49;;;;;;;1.75;0.90;;;21.10;74.90;;;;;;4918755;29;20058;-66
2022/05/30 12:27:30;;;;;;;0.00;0.00;;;19.70;75.80;;;;;;4934140;29;20415;-67
2022/05/30 12:29:56;;;;;;;0.00;0.00;;;19.10;75.60;;;;;;4934695;29;20036;-68
2022/05/30 12:32:21;;;;;;;0.00;0.00;;;19.20;77.30;;;;;;4934010;29;20044;-67
2022/05/30 12:35:32;;;;;;;0.00;0.00;;;20.00;77.70;;;;;;4935124;29;20488;-67
2022/05/30 12:38:10;;;;;;;0.00;0.00;;;20.60;74.40;;;;;;4931869;29;20098;-68
2022/05/30 12:40:43;;;;;;;0.00;0.00;;;20.50;76.90;;;;;;4933974;29;20042;-68
2022/05/30 12:43:35;;;;;;;0.00;0.00;;;20.70;74.50;;;;;;4934891;29;20374;-68
2022/05/30 12:46:01;;;;;;;0.00;0.00;;;20.60;74.40;;;;;;4933466;29;20055;-67
2022/05/30 12:48:58;;;;;;;0.00;0.00;;;20.00;75.50;;;;;;4934446;29;20480;-68
2022/05/30 12:51:37;;;;;;;0.40;0.08;;;20.30;74.90;;;;;;4933632;29;20043;-67
2022/05/30 12:54:03;;;;;;;0.00;0.00;;;20.30;74.40;;;;;;4935063;29;20044;-68
2022/05/30 12:56:40;;;;;;;0.00;0.00;;;20.50;74.40;;;;;;4934790;29;20098;-67
2022/05/30 12:59:06;;;;;;;0.00;0.00;;;20.90;73.80;;;;;;4934255;29;20067;-68
2022/05/30 13:01:43;;;;;;;0.00;0.00;;;21.40;71.60;;;;;;4934434;29;20067;-67
2022/05/30 13:04:27;;;;;;;0.65;0.50;;;20.30;73.20;;;;;;4934302;29;20040;-67
2022/05/30 13:06:57;;;;;;;0.00;0.00;;;20.10;73.40;;;;;;4934199;29;20039;-67
2022/05/30 13:09:40;;;;;;;0.13;0.13;;;19.30;74.30;;;;;;4933642;29;20122;-67
2022/05/30 13:12:14;;;;;;;0.00;0.00;;;19.30;76.00;;;;;;4934546;29;20605;-67
2022/05/30 13:15:02;;;;;;;0.30;0.20;;;20.40;76.00;;;;;;4934100;29;20118;-67
2022/05/30 13:17:57;;;;;;;0.00;0.00;;;21.20;73.80;;;;;;4934354;29;20039;-68
2022/05/30 13:20:54;;;;;;;0.00;0.00;;;21.60;71.90;;;;;;4933535;29;20032;-68
2022/05/30 13:23:34;;;;;;;0.17;0.17;;;21.50;71.40;;;;;;4945365;28;20051;-68
2022/05/30 13:26:11;;;;;;;0.00;0.00;;;21.70;71.00;;;;;;4948806;29;20075;-67
2022/05/30 13:28:43;;;;;;;0.00;0.00;;;19.60;75.50;;;;;;4933409;29;20036;-67
2022/05/30 13:31:12;;;;;;;1.83;0.77;;;20.10;73.80;;;;;;4948598;29;20031;-68
2022/05/30 13:33:41;;;;;;;0.00;0.00;;;20.60;73.30;;;;;;4921070;29;20039;-68
2022/05/30 13:36:29;;;;;;;0.00;0.00;;;20.90;73.20;;;;;;4932362;29;20370;-68
2022/05/30 13:38:56;;;;;;;0.00;0.00;;;20.90;72.70;;;;;;4932088;29;20090;-66
2022/05/30 13:41:34;;;;;;;0.00;0.00;;;21.70;71.80;;;;;;4932105;29;20036;-67
2022/05/30 13:44:00;;;;;;;0.00;0.00;;;22.80;69.50;;;;;;4933886;29;20107;-67
2022/05/30 13:46:31;;;;;;;0.00;0.00;;;23.90;67.70;;;;;;4933274;29;20171;-66
2022/05/30 13:48:56;;;;;;;0.00;0.00;;;24.90;64.70;;;;;;4931954;29;20032;-67
2022/05/30 13:51:31;;;;;;;0.00;0.00;;;24.70;64.40;;;;;;4932160;29;20082;-67
2022/05/30 13:53:57;;;;;;;0.00;0.00;;;25.20;63.20;;;;;;4932376;29;20480;-67